sensor_id;sensor_type;location;lat;lon;timestamp;temperature;humidity
14995;DHT22;7593;49.006;8.372;2023-01-01T00:00:10;15.50;99.90
14995;DHT22;7593;49.006;8.372;2023-01-01T00:02:37;15.50;99.90
14995;DHT22;7593;49.006;8.372;2023-01-01T00:05:05;15.50;99.90
14995;DHT22;7593;49.006;8.372;2023-01-01T00:07:33;15.50;99.90
14995;DHT22;7593;49.006;8.372;2023-01-01T00:10:00;15.50;99.90
14995;DHT22;7593;49.006;8.372;2023-01-01T00:12:45;15.50;99.90
14995;DHT22;7593;49.006;8.372;2023-01-01T00:15:11;15.50;99.90
14995;DHT22;7593;49.006;8.372;2023-01-01T00:17:38;15.40;99.90
14995;DHT22;7593;49.006;8.372;2023-01-01T00:20:05;15.40;99.90
14995;DHT22;7593;49.006;8.372;2023-01-01T00:22:34;15.40;99.90
14995;DHT22;7593;49.006;8.372;2023-01-01T00:25:00;15.30;99.90
14995;DHT22;7593;49.006;8.372;2023-01-01T00:27:27;15.30;99.90
14995;DHT22;7593;49.006;8.372;2023-01-01T00:29:54;15.30;99.90
14995;DHT22;7593;49.006;8.372;2023-01-01T00:32:20;15.20;99.90
14995;DHT22;7593;49.006;8.372;2023-01-01T00:34:47;15.20;99.90
14995;DHT22;7593;49.006;8.372;2023-01-01T00:37:14;15.10;99.90
14995;DHT22;7593;49.006;8.372;2023-01-01T00:39:44;15.00;99.90
14995;DHT22;7593;49.006;8.372;2023-01-01T00:42:10;15.00;99.90
14995;DHT22;7593;49.006;8.372;2023-01-01T00:44:37;15.00;99.90
14995;DHT22;7593;49.006;8.372;2023-01-01T00:47:04;15.00;99.90
14995;DHT22;7593;49.006;8.372;2023-01-01T00:49:31;15.00;99.90
14995;DHT22;7593;49.006;8.372;2023-01-01T00:51:57;15.00;99.90
14995;DHT22;7593;49.006;8.372;2023-01-01T00:54:24;15.00;99.90
14995;DHT22;7593;49.006;8.372;2023-01-01T00:56:52;14.90;99.90
14995;DHT22;7593;49.006;8.372;2023-01-01T00:59:20;14.90;99.90
14995;DHT22;7593;49.006;8.372;2023-01-01T01:01:46;14.80;99.90
14995;DHT22;7593;49.006;8.372;2023-01-01T01:04:13;14.80;99.90
14995;DHT22;7593;49.006;8.372;2023-01-01T01:06:40;14.80;99.90
14995;DHT22;7593;49.006;8.372;2023-01-01T01:09:07;14.80;99.90
14995;DHT22;7593;49.006;8.372;2023-01-01T01:11:34;14.80;99.90
14995;DHT22;7593;49.006;8.372;2023-01-01T01:14:02;14.80;99.90
14995;DHT22;7593;49.006;8.372;2023-01-01T01:16:31;14.80;99.90
14995;DHT22;7593;49.006;8.372;2023-01-01T01:19:00;14.80;99.90
14995;DHT22;7593;49.006;8.372;2023-01-01T01:21:29;14.80;99.90
14995;DHT22;7593;49.006;8.372;2023-01-01T01:23:57;14.80;99.90
14995;DHT22;7593;49.006;8.372;2023-01-01T01:26:26;14.80;99.90
14995;DHT22;7593;49.006;8.372;2023-01-01T01:28:53;14.80;99.90
14995;DHT22;7593;49.006;8.372;2023-01-01T01:31:23;14.80;99.90
14995;DHT22;7593;49.006;8.372;2023-01-01T01:33:50;14.80;99.90
14995;DHT22;7593;49.006;8.372;2023-01-01T01:36:18;14.80;99.90
14995;DHT22;7593;49.006;8.372;2023-01-01T01:38:45;14.80;99.90
14995;DHT22;7593;49.006;8.372;2023-01-01T01:41:13;14.80;99.90
14995;DHT22;7593;49.006;8.372;2023-01-01T01:43:51;14.80;99.90
14995;DHT22;7593;49.006;8.372;2023-01-01T01:46:23;14.70;99.90
14995;DHT22;7593;49.006;8.372;2023-01-01T01:48:52;14.70;99.90
14995;DHT22;7593;49.006;8.372;2023-01-01T01:51:23;14.60;99.90
14995;DHT22;7593;49.006;8.372;2023-01-01T01:53:55;14.60;99.90
14995;DHT22;7593;49.006;8.372;2023-01-01T01:56:26;14.50;99.90
14995;DHT22;7593;49.006;8.372;2023-01-01T01:58:54;14.50;99.90
14995;DHT22;7593;49.006;8.372;2023-01-01T02:01:23;14.50;99.90
14995;DHT22;7593;49.006;8.372;2023-01-01T02:03:54;14.40;99.90
14995;DHT22;7593;49.006;8.372;2023-01-01T02:06:22;14.40;99.90
14995;DHT22;7593;49.006;8.372;2023-01-01T02:08:52;14.30;99.90
14995;DHT22;7593;49.006;8.372;2023-01-01T02:11:19;14.30;99.90
14995;DHT22;7593;49.006;8.372;2023-01-01T02:13:46;14.30;99.90
14995;DHT22;7593;49.006;8.372;2023-01-01T02:16:19;14.30;99.90
14995;DHT22;7593;49.006;8.372;2023-01-01T02:18:52;14.30;99.90
14995;DHT22;7593;49.006;8.372;2023-01-01T02:21:25;14.40;99.90
14995;DHT22;7593;49.006;8.372;2023-01-01T02:24:10;14.50;99.90
14995;DHT22;7593;49.006;8.372;2023-01-01T02:26:50;14.60;99.90
14995;DHT22;7593;49.006;8.372;2023-01-01T02:29:44;14.70;99.90
14995;DHT22;7593;49.006;8.372;2023-01-01T02:32:17;14.80;99.90
14995;DHT22;7593;49.006;8.372;2023-01-01T02:34:48;14.80;99.90
14995;DHT22;7593;49.006;8.372;2023-01-01T02:37:19;14.90;99.90
14995;DHT22;7593;49.006;8.372;2023-01-01T02:39:50;15.00;99.90
14995;DHT22;7593;49.006;8.372;2023-01-01T02:42:18;15.00;99.90
14995;DHT22;7593;49.006;8.372;2023-01-01T02:44:49;15.10;99.90
14995;DHT22;7593;49.006;8.372;2023-01-01T02:47:18;15.10;99.90
14995;DHT22;7593;49.006;8.372;2023-01-01T02:49:55;15.10;99.90
14995;DHT22;7593;49.006;8.372;2023-01-01T02:52:45;15.20;99.90
14995;DHT22;7593;49.006;8.372;2023-01-01T02:55:26;15.20;99.90
14995;DHT22;7593;49.006;8.372;2023-01-01T02:58:01;15.20;99.90
14995;DHT22;7593;49.006;8.372;2023-01-01T03:00:53;15.20;99.90
14995;DHT22;7593;49.006;8.372;2023-01-01T03:03:27;15.20;99.90
14995;DHT22;7593;49.006;8.372;2023-01-01T03:05:57;15.30;99.90
14995;DHT22;7593;49.006;8.372;2023-01-01T03:08:48;15.20;99.90
14995;DHT22;7593;49.006;8.372;2023-01-01T03:11:19;15.20;99.90
14995;DHT22;7593;49.006;8.372;2023-01-01T03:13:51;15.20;99.90
14995;DHT22;7593;49.006;8.372;2023-01-01T03:16:26;15.20;99.90
14995;DHT22;7593;49.006;8.372;2023-01-01T03:18:59;15.20;99.90
14995;DHT22;7593;49.006;8.372;2023-01-01T03:21:45;15.20;99.90
14995;DHT22;7593;49.006;8.372;2023-01-01T03:24:18;15.20;99.90
14995;DHT22;7593;49.006;8.372;2023-01-01T03:26:49;15.10;99.90
14995;DHT22;7593;49.006;8.372;2023-01-01T03:29:17;15.10;99.90
14995;DHT22;7593;49.006;8.372;2023-01-01T03:31:47;15.10;99.90
14995;DHT22;7593;49.006;8.372;2023-01-01T03:34:19;15.00;99.90
14995;DHT22;7593;49.006;8.372;2023-01-01T03:36:50;15.00;99.90
14995;DHT22;7593;49.006;8.372;2023-01-01T03:39:19;14.90;99.90
14995;DHT22;7593;49.006;8.372;2023-01-01T03:41:51;14.80;99.90
14995;DHT22;7593;49.006;8.372;2023-01-01T03:44:25;14.80;99.90
14995;DHT22;7593;49.006;8.372;2023-01-01T03:46:55;14.80;99.90
14995;DHT22;7593;49.006;8.372;2023-01-01T03:49:22;14.80;99.90
14995;DHT22;7593;49.006;8.372;2023-01-01T03:52:04;14.80;99.90
14995;DHT22;7593;49.006;8.372;2023-01-01T03:54:41;14.80;99.90
14995;DHT22;7593;49.006;8.372;2023-01-01T03:57:15;14.80;99.90
14995;DHT22;7593;49.006;8.372;2023-01-01T03:59:51;14.80;99.90
14995;DHT22;7593;49.006;8.372;2023-01-01T04:02:22;14.80;99.90
14995;DHT22;7593;49.006;8.372;2023-01-01T04:04:51;14.80;99.90
14995;DHT22;7593;49.006;8.372;2023-01-01T04:07:18;14.80;99.90
14995;DHT22;7593;49.006;8.372;2023-01-01T04:09:48;14.80;99.90
14995;DHT22;7593;49.006;8.372;2023-01-01T04:12:16;14.80;99.90
14995;DHT22;7593;49.006;8.372;2023-01-01T04:14:43;14.80;99.90
14995;DHT22;7593;49.006;8.372;2023-01-01T04:17:11;14.80;99.90
14995;DHT22;7593;49.006;8.372;2023-01-01T04:19:40;14.80;99.90
14995;DHT22;7593;49.006;8.372;2023-01-01T04:22:07;14.80;99.90
14995;DHT22;7593;49.006;8.372;2023-01-01T04:24:33;14.80;99.90
14995;DHT22;7593;49.006;8.372;2023-01-01T04:27:00;14.80;99.90
14995;DHT22;7593;49.006;8.372;2023-01-01T04:29:27;14.80;99.90
14995;DHT22;7593;49.006;8.372;2023-01-01T04:31:54;14.80;99.90
14995;DHT22;7593;49.006;8.372;2023-01-01T04:34:21;14.80;99.90
14995;DHT22;7593;49.006;8.372;2023-01-01T04:36:49;14.70;99.90
14995;DHT22;7593;49.006;8.372;2023-01-01T04:39:16;14.70;99.90
14995;DHT22;7593;49.006;8.372;2023-01-01T04:41:42;14.70;99.90
14995;DHT22;7593;49.006;8.372;2023-01-01T04:44:09;14.70;99.90
14995;DHT22;7593;49.006;8.372;2023-01-01T04:46:36;14.70;99.90
14995;DHT22;7593;49.006;8.372;2023-01-01T04:49:03;14.80;99.90
14995;DHT22;7593;49.006;8.372;2023-01-01T04:51:29;14.80;99.90
14995;DHT22;7593;49.006;8.372;2023-01-01T04:53:59;14.80;99.90
14995;DHT22;7593;49.006;8.372;2023-01-01T04:56:27;14.80;99.90
14995;DHT22;7593;49.006;8.372;2023-01-01T04:58:53;14.80;99.90
14995;DHT22;7593;49.006;8.372;2023-01-01T05:01:23;14.90;99.90
14995;DHT22;7593;49.006;8.372;2023-01-01T05:03:50;14.90;99.90
14995;DHT22;7593;49.006;8.372;2023-01-01T05:06:17;14.90;99.90
14995;DHT22;7593;49.006;8.372;2023-01-01T05:08:45;14.90;99.90
14995;DHT22;7593;49.006;8.372;2023-01-01T05:11:15;14.90;99.90
14995;DHT22;7593;49.006;8.372;2023-01-01T05:13:44;14.90;99.90
14995;DHT22;7593;49.006;8.372;2023-01-01T05:16:14;14.90;99.90
14995;DHT22;7593;49.006;8.372;2023-01-01T05:18:41;14.90;99.90
14995;DHT22;7593;49.006;8.372;2023-01-01T05:21:11;14.90;99.90
14995;DHT22;7593;49.006;8.372;2023-01-01T05:23:38;14.80;99.90
14995;DHT22;7593;49.006;8.372;2023-01-01T05:26:13;14.80;99.90
14995;DHT22;7593;49.006;8.372;2023-01-01T05:28:40;14.80;99.90
14995;DHT22;7593;49.006;8.372;2023-01-01T05:31:08;14.80;99.90
14995;DHT22;7593;49.006;8.372;2023-01-01T05:33:35;14.80;99.90
14995;DHT22;7593;49.006;8.372;2023-01-01T05:36:03;14.90;99.90
14995;DHT22;7593;49.006;8.372;2023-01-01T05:38:32;14.90;99.90
14995;DHT22;7593;49.006;8.372;2023-01-01T05:40:58;14.90;99.90
14995;DHT22;7593;49.006;8.372;2023-01-01T05:43:26;14.90;99.90
14995;DHT22;7593;49.006;8.372;2023-01-01T05:46:00;14.90;99.90
14995;DHT22;7593;49.006;8.372;2023-01-01T05:48:27;14.80;99.90
14995;DHT22;7593;49.006;8.372;2023-01-01T05:50:59;14.70;99.90
14995;DHT22;7593;49.006;8.372;2023-01-01T05:53:27;14.70;99.90
14995;DHT22;7593;49.006;8.372;2023-01-01T05:55:54;14.70;99.90
14995;DHT22;7593;49.006;8.372;2023-01-01T05:58:20;14.60;99.90
14995;DHT22;7593;49.006;8.372;2023-01-01T06:00:48;14.60;99.90
14995;DHT22;7593;49.006;8.372;2023-01-01T06:03:15;14.60;99.90
14995;DHT22;7593;49.006;8.372;2023-01-01T06:05:42;14.50;99.90
14995;DHT22;7593;49.006;8.372;2023-01-01T06:08:09;14.50;99.90
14995;DHT22;7593;49.006;8.372;2023-01-01T06:10:36;14.50;99.90
14995;DHT22;7593;49.006;8.372;2023-01-01T06:13:03;14.40;99.90
14995;DHT22;7593;49.006;8.372;2023-01-01T06:15:30;14.40;99.90
14995;DHT22;7593;49.006;8.372;2023-01-01T06:17:58;14.30;99.90
14995;DHT22;7593;49.006;8.372;2023-01-01T06:20:25;14.30;99.90
14995;DHT22;7593;49.006;8.372;2023-01-01T06:22:52;14.30;99.90
14995;DHT22;7593;49.006;8.372;2023-01-01T06:25:18;14.30;99.90
14995;DHT22;7593;49.006;8.372;2023-01-01T06:27:45;14.20;99.90
14995;DHT22;7593;49.006;8.372;2023-01-01T06:30:12;14.20;99.90
14995;DHT22;7593;49.006;8.372;2023-01-01T06:32:38;14.10;99.90
14995;DHT22;7593;49.006;8.372;2023-01-01T06:35:07;14.10;99.90
14995;DHT22;7593;49.006;8.372;2023-01-01T06:37:34;14.10;99.90
14995;DHT22;7593;49.006;8.372;2023-01-01T06:40:01;14.10;99.90
14995;DHT22;7593;49.006;8.372;2023-01-01T06:42:28;14.00;99.90
14995;DHT22;7593;49.006;8.372;2023-01-01T06:44:54;14.00;99.90
14995;DHT22;7593;49.006;8.372;2023-01-01T06:47:21;14.00;99.90
14995;DHT22;7593;49.006;8.372;2023-01-01T06:49:48;14.00;99.90
14995;DHT22;7593;49.006;8.372;2023-01-01T06:52:16;14.00;99.90
14995;DHT22;7593;49.006;8.372;2023-01-01T06:54:43;13.90;99.90
14995;DHT22;7593;49.006;8.372;2023-01-01T06:57:09;13.90;99.90
14995;DHT22;7593;49.006;8.372;2023-01-01T06:59:36;13.90;99.90
14995;DHT22;7593;49.006;8.372;2023-01-01T07:02:03;13.90;99.90
14995;DHT22;7593;49.006;8.372;2023-01-01T07:04:29;13.90;99.90
14995;DHT22;7593;49.006;8.372;2023-01-01T07:06:56;13.90;99.90
14995;DHT22;7593;49.006;8.372;2023-01-01T07:09:27;13.90;99.90
14995;DHT22;7593;49.006;8.372;2023-01-01T07:11:53;13.80;99.90
14995;DHT22;7593;49.006;8.372;2023-01-01T07:14:20;13.90;99.90
14995;DHT22;7593;49.006;8.372;2023-01-01T07:16:47;13.80;99.90
14995;DHT22;7593;49.006;8.372;2023-01-01T07:19:13;13.80;99.90
14995;DHT22;7593;49.006;8.372;2023-01-01T07:21:43;13.70;99.90
14995;DHT22;7593;49.006;8.372;2023-01-01T07:24:11;13.60;99.90
14995;DHT22;7593;49.006;8.372;2023-01-01T07:26:39;13.50;99.90
14995;DHT22;7593;49.006;8.372;2023-01-01T07:29:06;13.50;99.90
14995;DHT22;7593;49.006;8.372;2023-01-01T07:31:33;13.50;99.90
14995;DHT22;7593;49.006;8.372;2023-01-01T07:34:01;13.40;99.90
14995;DHT22;7593;49.006;8.372;2023-01-01T07:36:27;13.40;99.90
14995;DHT22;7593;49.006;8.372;2023-01-01T07:38:54;13.30;99.90
14995;DHT22;7593;49.006;8.372;2023-01-01T07:41:21;13.20;99.90
14995;DHT22;7593;49.006;8.372;2023-01-01T07:43:49;13.20;99.90
14995;DHT22;7593;49.006;8.372;2023-01-01T07:46:16;13.20;99.90
14995;DHT22;7593;49.006;8.372;2023-01-01T07:48:44;13.20;99.90
14995;DHT22;7593;49.006;8.372;2023-01-01T07:51:10;13.20;99.90
14995;DHT22;7593;49.006;8.372;2023-01-01T07:53:37;13.20;99.90
14995;DHT22;7593;49.006;8.372;2023-01-01T07:56:05;13.20;99.90
14995;DHT22;7593;49.006;8.372;2023-01-01T07:58:32;13.20;99.90
14995;DHT22;7593;49.006;8.372;2023-01-01T08:01:00;13.10;99.90
14995;DHT22;7593;49.006;8.372;2023-01-01T08:03:27;13.10;99.90
14995;DHT22;7593;49.006;8.372;2023-01-01T08:05:53;13.00;99.90
14995;DHT22;7593;49.006;8.372;2023-01-01T08:08:20;13.00;99.90
14995;DHT22;7593;49.006;8.372;2023-01-01T08:10:47;13.00;99.90
14995;DHT22;7593;49.006;8.372;2023-01-01T08:13:13;13.00;99.90
14995;DHT22;7593;49.006;8.372;2023-01-01T08:15:40;13.00;99.90
14995;DHT22;7593;49.006;8.372;2023-01-01T08:18:09;13.00;99.90
14995;DHT22;7593;49.006;8.372;2023-01-01T08:20:36;13.00;99.90
14995;DHT22;7593;49.006;8.372;2023-01-01T08:23:02;12.90;99.90
14995;DHT22;7593;49.006;8.372;2023-01-01T08:25:29;12.90;99.90
14995;DHT22;7593;49.006;8.372;2023-01-01T08:27:56;12.90;99.90
14995;DHT22;7593;49.006;8.372;2023-01-01T08:30:23;12.90;99.90
14995;DHT22;7593;49.006;8.372;2023-01-01T08:32:49;12.90;99.90
14995;DHT22;7593;49.006;8.372;2023-01-01T08:35:18;12.90;99.90
14995;DHT22;7593;49.006;8.372;2023-01-01T08:37:45;12.90;99.90
14995;DHT22;7593;49.006;8.372;2023-01-01T08:40:12;12.90;99.90
14995;DHT22;7593;49.006;8.372;2023-01-01T08:42:39;12.90;99.90
14995;DHT22;7593;49.006;8.372;2023-01-01T08:45:07;12.90;99.90
14995;DHT22;7593;49.006;8.372;2023-01-01T08:47:34;13.00;99.90
14995;DHT22;7593;49.006;8.372;2023-01-01T08:50:01;13.00;99.90
14995;DHT22;7593;49.006;8.372;2023-01-01T08:52:30;13.00;99.90
14995;DHT22;7593;49.006;8.372;2023-01-01T08:54:57;13.00;99.90
14995;DHT22;7593;49.006;8.372;2023-01-01T08:57:24;13.10;99.90
14995;DHT22;7593;49.006;8.372;2023-01-01T08:59:50;13.10;99.90
14995;DHT22;7593;49.006;8.372;2023-01-01T09:02:17;13.10;99.90
14995;DHT22;7593;49.006;8.372;2023-01-01T09:04:44;13.20;99.90
14995;DHT22;7593;49.006;8.372;2023-01-01T09:07:10;13.20;99.90
14995;DHT22;7593;49.006;8.372;2023-01-01T09:09:38;13.20;99.90
14995;DHT22;7593;49.006;8.372;2023-01-01T09:12:05;13.30;99.90
14995;DHT22;7593;49.006;8.372;2023-01-01T09:14:34;13.30;99.90
14995;DHT22;7593;49.006;8.372;2023-01-01T09:17:01;13.40;99.90
14995;DHT22;7593;49.006;8.372;2023-01-01T09:19:28;13.40;99.90
14995;DHT22;7593;49.006;8.372;2023-01-01T09:21:54;13.50;99.90
14995;DHT22;7593;49.006;8.372;2023-01-01T09:24:21;13.60;99.90
14995;DHT22;7593;49.006;8.372;2023-01-01T09:26:50;13.70;99.90
14995;DHT22;7593;49.006;8.372;2023-01-01T09:29:16;13.80;99.90
14995;DHT22;7593;49.006;8.372;2023-01-01T09:31:45;13.90;99.90
14995;DHT22;7593;49.006;8.372;2023-01-01T09:34:12;14.10;99.90
14995;DHT22;7593;49.006;8.372;2023-01-01T09:36:39;14.20;99.90
14995;DHT22;7593;49.006;8.372;2023-01-01T09:39:06;14.30;99.90
14995;DHT22;7593;49.006;8.372;2023-01-01T09:41:45;14.40;99.90
14995;DHT22;7593;49.006;8.372;2023-01-01T09:44:26;14.50;99.90
14995;DHT22;7593;49.006;8.372;2023-01-01T09:46:59;14.60;99.90
14995;DHT22;7593;49.006;8.372;2023-01-01T09:49:32;14.70;99.90
14995;DHT22;7593;49.006;8.372;2023-01-01T09:52:01;14.80;99.90
14995;DHT22;7593;49.006;8.372;2023-01-01T09:54:31;14.90;99.90
14995;DHT22;7593;49.006;8.372;2023-01-01T09:57:01;15.00;99.90
14995;DHT22;7593;49.006;8.372;2023-01-01T09:59:30;15.20;99.90
14995;DHT22;7593;49.006;8.372;2023-01-01T10:02:03;15.30;99.90
14995;DHT22;7593;49.006;8.372;2023-01-01T10:04:48;15.40;99.90
14995;DHT22;7593;49.006;8.372;2023-01-01T10:07:24;15.60;99.90
14995;DHT22;7593;49.006;8.372;2023-01-01T10:10:00;15.70;99.90
14995;DHT22;7593;49.006;8.372;2023-01-01T10:12:34;15.80;99.90
14995;DHT22;7593;49.006;8.372;2023-01-01T10:15:10;16.00;99.90
14995;DHT22;7593;49.006;8.372;2023-01-01T10:17:42;16.20;99.90
14995;DHT22;7593;49.006;8.372;2023-01-01T10:20:17;16.30;99.90
14995;DHT22;7593;49.006;8.372;2023-01-01T10:22:49;16.30;99.90
14995;DHT22;7593;49.006;8.372;2023-01-01T10:25:19;16.30;99.90
14995;DHT22;7593;49.006;8.372;2023-01-01T10:27:48;16.40;99.90
14995;DHT22;7593;49.006;8.372;2023-01-01T10:30:19;16.50;99.90
14995;DHT22;7593;49.006;8.372;2023-01-01T10:32:47;16.60;99.90
14995;DHT22;7593;49.006;8.372;2023-01-01T10:35:17;16.70;99.90
14995;DHT22;7593;49.006;8.372;2023-01-01T10:37:44;16.80;99.90
14995;DHT22;7593;49.006;8.372;2023-01-01T10:40:17;16.90;99.90
14995;DHT22;7593;49.006;8.372;2023-01-01T10:42:47;16.90;99.90
14995;DHT22;7593;49.006;8.372;2023-01-01T10:45:27;17.00;99.90
14995;DHT22;7593;49.006;8.372;2023-01-01T10:48:09;17.10;99.90
14995;DHT22;7593;49.006;8.372;2023-01-01T10:50:40;17.10;99.90
14995;DHT22;7593;49.006;8.372;2023-01-01T10:53:22;17.20;99.90
14995;DHT22;7593;49.006;8.372;2023-01-01T10:55:50;17.30;99.90
14995;DHT22;7593;49.006;8.372;2023-01-01T10:58:32;17.30;99.90
14995;DHT22;7593;49.006;8.372;2023-01-01T11:01:02;17.40;99.90
14995;DHT22;7593;49.006;8.372;2023-01-01T11:03:30;17.40;99.90
14995;DHT22;7593;49.006;8.372;2023-01-01T11:06:09;17.40;99.90
14995;DHT22;7593;49.006;8.372;2023-01-01T11:08:38;17.30;99.90
14995;DHT22;7593;49.006;8.372;2023-01-01T11:11:06;17.30;99.90
14995;DHT22;7593;49.006;8.372;2023-01-01T11:13:33;17.20;99.90
14995;DHT22;7593;49.006;8.372;2023-01-01T11:16:01;17.20;99.90
14995;DHT22;7593;49.006;8.372;2023-01-01T11:18:35;17.10;99.90
14995;DHT22;7593;49.006;8.372;2023-01-01T11:21:04;17.10;99.90
14995;DHT22;7593;49.006;8.372;2023-01-01T11:23:34;17.20;99.90
14995;DHT22;7593;49.006;8.372;2023-01-01T11:26:04;17.40;99.90
14995;DHT22;7593;49.006;8.372;2023-01-01T11:28:33;17.50;99.90
14995;DHT22;7593;49.006;8.372;2023-01-01T11:31:10;17.70;99.90
14995;DHT22;7593;49.006;8.372;2023-01-01T11:33:42;17.90;99.90
14995;DHT22;7593;49.006;8.372;2023-01-01T11:36:10;18.10;99.90
14995;DHT22;7593;49.006;8.372;2023-01-01T11:38:37;18.20;99.90
14995;DHT22;7593;49.006;8.372;2023-01-01T11:41:05;18.30;99.90
14995;DHT22;7593;49.006;8.372;2023-01-01T11:43:38;18.30;99.90
14995;DHT22;7593;49.006;8.372;2023-01-01T11:46:09;18.40;99.90
14995;DHT22;7593;49.006;8.372;2023-01-01T11:48:41;18.30;99.90
14995;DHT22;7593;49.006;8.372;2023-01-01T11:51:10;18.30;99.90
14995;DHT22;7593;49.006;8.372;2023-01-01T11:53:38;18.30;99.90
14995;DHT22;7593;49.006;8.372;2023-01-01T11:56:10;18.20;99.90
14995;DHT22;7593;49.006;8.372;2023-01-01T11:58:45;18.20;99.90
14995;DHT22;7593;49.006;8.372;2023-01-01T12:01:20;18.30;99.90
14995;DHT22;7593;49.006;8.372;2023-01-01T12:03:52;18.30;99.90
14995;DHT22;7593;49.006;8.372;2023-01-01T12:06:23;18.30;99.90
14995;DHT22;7593;49.006;8.372;2023-01-01T12:08:57;18.40;99.90
14995;DHT22;7593;49.006;8.372;2023-01-01T12:11:30;18.40;99.90
14995;DHT22;7593;49.006;8.372;2023-01-01T12:14:04;18.50;99.90
14995;DHT22;7593;49.006;8.372;2023-01-01T12:16:44;18.60;99.90
14995;DHT22;7593;49.006;8.372;2023-01-01T12:19:15;18.70;99.90
14995;DHT22;7593;49.006;8.372;2023-01-01T12:21:47;18.70;99.90
14995;DHT22;7593;49.006;8.372;2023-01-01T12:24:16;18.70;99.90
14995;DHT22;7593;49.006;8.372;2023-01-01T12:26:52;18.70;99.90
14995;DHT22;7593;49.006;8.372;2023-01-01T12:29:44;18.70;99.90
14995;DHT22;7593;49.006;8.372;2023-01-01T12:32:19;18.60;99.90
14995;DHT22;7593;49.006;8.372;2023-01-01T12:34:53;18.60;99.90
14995;DHT22;7593;49.006;8.372;2023-01-01T12:37:34;18.50;99.90
14995;DHT22;7593;49.006;8.372;2023-01-01T12:40:36;18.50;99.90
14995;DHT22;7593;49.006;8.372;2023-01-01T12:43:07;18.40;99.90
14995;DHT22;7593;49.006;8.372;2023-01-01T12:45:52;18.30;99.90
14995;DHT22;7593;49.006;8.372;2023-01-01T12:48:33;18.20;99.90
14995;DHT22;7593;49.006;8.372;2023-01-01T12:51:06;18.10;99.90
14995;DHT22;7593;49.006;8.372;2023-01-01T12:53:45;18.10;99.90
14995;DHT22;7593;49.006;8.372;2023-01-01T12:56:19;18.10;99.90
14995;DHT22;7593;49.006;8.372;2023-01-01T12:58:54;18.00;99.90
14995;DHT22;7593;49.006;8.372;2023-01-01T13:01:25;18.00;99.90
14995;DHT22;7593;49.006;8.372;2023-01-01T13:03:57;18.00;99.90
14995;DHT22;7593;49.006;8.372;2023-01-01T13:06:29;18.00;99.90
14995;DHT22;7593;49.006;8.372;2023-01-01T13:09:03;18.00;99.90
14995;DHT22;7593;49.006;8.372;2023-01-01T13:11:33;18.00;99.90
14995;DHT22;7593;49.006;8.372;2023-01-01T13:14:00;18.00;99.90
14995;DHT22;7593;49.006;8.372;2023-01-01T13:16:33;18.00;99.90
14995;DHT22;7593;49.006;8.372;2023-01-01T13:19:02;18.10;99.90
14995;DHT22;7593;49.006;8.372;2023-01-01T13:21:29;18.10;99.90
14995;DHT22;7593;49.006;8.372;2023-01-01T13:24:03;18.10;99.90
14995;DHT22;7593;49.006;8.372;2023-01-01T13:26:42;18.10;99.90
14995;DHT22;7593;49.006;8.372;2023-01-01T13:29:32;18.10;99.90
14995;DHT22;7593;49.006;8.372;2023-01-01T13:32:10;18.10;99.90
14995;DHT22;7593;49.006;8.372;2023-01-01T13:34:58;18.10;99.90
14995;DHT22;7593;49.006;8.372;2023-01-01T13:40:50;18.10;99.90
14995;DHT22;7593;49.006;8.372;2023-01-01T13:43:28;18.10;99.90
14995;DHT22;7593;49.006;8.372;2023-01-01T13:45:57;18.00;99.90
14995;DHT22;7593;49.006;8.372;2023-01-01T13:51:51;18.00;99.90
14995;DHT22;7593;49.006;8.372;2023-01-01T14:00:28;17.80;99.90
14995;DHT22;7593;49.006;8.372;2023-01-01T14:02:59;17.70;99.90
14995;DHT22;7593;49.006;8.372;2023-01-01T14:05:29;17.70;99.90
14995;DHT22;7593;49.006;8.372;2023-01-01T14:07:58;17.60;99.90
14995;DHT22;7593;49.006;8.372;2023-01-01T14:10:27;17.70;99.90
14995;DHT22;7593;49.006;8.372;2023-01-01T14:12:56;17.60;99.90
14995;DHT22;7593;49.006;8.372;2023-01-01T14:15:28;17.60;99.90
14995;DHT22;7593;49.006;8.372;2023-01-01T14:17:57;17.50;99.90
14995;DHT22;7593;49.006;8.372;2023-01-01T14:20:31;17.50;99.90
14995;DHT22;7593;49.006;8.372;2023-01-01T14:23:04;17.50;99.90
14995;DHT22;7593;49.006;8.372;2023-01-01T14:25:32;17.40;99.90
14995;DHT22;7593;49.006;8.372;2023-01-01T14:27:59;17.40;99.90
14995;DHT22;7593;49.006;8.372;2023-01-01T14:30:29;17.40;99.90
14995;DHT22;7593;49.006;8.372;2023-01-01T14:32:56;17.30;99.90
14995;DHT22;7593;49.006;8.372;2023-01-01T14:35:24;17.30;99.90
14995;DHT22;7593;49.006;8.372;2023-01-01T14:37:51;17.20;99.90
14995;DHT22;7593;49.006;8.372;2023-01-01T14:40:21;17.10;99.90
14995;DHT22;7593;49.006;8.372;2023-01-01T14:42:59;17.10;99.90
14995;DHT22;7593;49.006;8.372;2023-01-01T14:45:28;17.10;99.90
14995;DHT22;7593;49.006;8.372;2023-01-01T14:47:56;17.10;99.90
14995;DHT22;7593;49.006;8.372;2023-01-01T14:50:27;17.00;99.90
14995;DHT22;7593;49.006;8.372;2023-01-01T14:52:59;17.00;99.90
14995;DHT22;7593;49.006;8.372;2023-01-01T14:55:32;17.00;99.90
14995;DHT22;7593;49.006;8.372;2023-01-01T14:58:00;16.90;99.90
14995;DHT22;7593;49.006;8.372;2023-01-01T15:00:29;16.90;99.90
14995;DHT22;7593;49.006;8.372;2023-01-01T15:03:05;16.80;99.90
14995;DHT22;7593;49.006;8.372;2023-01-01T15:05:34;16.80;99.90
14995;DHT22;7593;49.006;8.372;2023-01-01T15:08:03;16.70;99.90
14995;DHT22;7593;49.006;8.372;2023-01-01T15:10:34;16.70;99.90
14995;DHT22;7593;49.006;8.372;2023-01-01T15:13:04;16.60;99.90
14995;DHT22;7593;49.006;8.372;2023-01-01T15:15:37;16.50;99.90
14995;DHT22;7593;49.006;8.372;2023-01-01T15:18:05;16.40;99.90
14995;DHT22;7593;49.006;8.372;2023-01-01T15:20:32;16.50;99.90
14995;DHT22;7593;49.006;8.372;2023-01-01T15:23:00;16.40;99.90
14995;DHT22;7593;49.006;8.372;2023-01-01T15:25:28;16.40;99.90
14995;DHT22;7593;49.006;8.372;2023-01-01T15:28:01;16.30;99.90
14995;DHT22;7593;49.006;8.372;2023-01-01T15:30:31;16.40;99.90
14995;DHT22;7593;49.006;8.372;2023-01-01T15:33:13;16.30;99.90
14995;DHT22;7593;49.006;8.372;2023-01-01T15:35:45;16.30;99.90
14995;DHT22;7593;49.006;8.372;2023-01-01T15:38:18;16.20;99.90
14995;DHT22;7593;49.006;8.372;2023-01-01T15:40:46;16.00;99.90
14995;DHT22;7593;49.006;8.372;2023-01-01T15:43:22;16.00;99.90
14995;DHT22;7593;49.006;8.372;2023-01-01T15:45:57;15.80;99.90
14995;DHT22;7593;49.006;8.372;2023-01-01T15:48:30;15.80;99.90
14995;DHT22;7593;49.006;8.372;2023-01-01T15:51:09;15.70;99.90
14995;DHT22;7593;49.006;8.372;2023-01-01T15:53:52;15.60;99.90
14995;DHT22;7593;49.006;8.372;2023-01-01T15:56:21;15.50;99.90
14995;DHT22;7593;49.006;8.372;2023-01-01T15:58:52;15.40;99.90
14995;DHT22;7593;49.006;8.372;2023-01-01T16:01:22;15.40;99.90
14995;DHT22;7593;49.006;8.372;2023-01-01T16:03:52;15.30;99.90
14995;DHT22;7593;49.006;8.372;2023-01-01T16:06:21;15.30;99.90
14995;DHT22;7593;49.006;8.372;2023-01-01T16:08:48;15.20;99.90
14995;DHT22;7593;49.006;8.372;2023-01-01T16:11:14;15.20;99.90
14995;DHT22;7593;49.006;8.372;2023-01-01T16:13:41;15.10;99.90
14995;DHT22;7593;49.006;8.372;2023-01-01T16:16:23;15.10;99.90